Farley, Iowa
Current Conditions -  °F | °C
As of 5:53 AM on Friday 21 Nov 2014 (Local Time) from KDBQ Reporting Station
Clear Clear  
Wind Chill: -15°   Ceiling: Unl
Heat Index: -15°   Visibility: 10mi
Dew Point: -17°   Wind: 0mph
Humidity: 84%   Direction: NA
Pressure: 30.35"   Gusts: NA
Location:  42.44°N, 91.01°W
Report Text: KDBQ 211153Z 00000KT 10SM CLR M15/M17 A3035 RMK AO2 SLP300 I6000 T11501172 11150 21172 50005
Loading
Personal Weather Stations






























Interactive Weather Map New forecast layout! Learn more

10-Day Weather Forecast

Advertisements
Track Severe Weather on mobile